sensor_id;sensor_type;location;lat;lon;timestamp;temperature;humidity
21811;DHT22;11067;48.788;9.208;2022-08-01T00:00:36;23.70;99.90
21811;DHT22;11067;48.788;9.208;2022-08-01T00:03:02;23.60;99.90
21811;DHT22;11067;48.788;9.208;2022-08-01T00:05:27;23.60;99.90
21811;DHT22;11067;48.788;9.208;2022-08-01T00:07:53;23.60;99.90
21811;DHT22;11067;48.788;9.208;2022-08-01T00:10:19;23.60;99.90
21811;DHT22;11067;48.788;9.208;2022-08-01T00:12:45;23.50;99.90
21811;DHT22;11067;48.788;9.208;2022-08-01T00:15:13;23.50;99.90
21811;DHT22;11067;48.788;9.208;2022-08-01T00:17:39;23.50;99.90
21811;DHT22;11067;48.788;9.208;2022-08-01T00:20:07;23.40;99.90
21811;DHT22;11067;48.788;9.208;2022-08-01T00:22:34;23.40;99.90
21811;DHT22;11067;48.788;9.208;2022-08-01T00:25:00;23.40;99.90
21811;DHT22;11067;48.788;9.208;2022-08-01T00:27:26;23.50;99.90
21811;DHT22;11067;48.788;9.208;2022-08-01T00:29:52;23.40;99.90
21811;DHT22;11067;48.788;9.208;2022-08-01T00:32:17;23.40;99.90
21811;DHT22;11067;48.788;9.208;2022-08-01T00:34:43;23.40;99.90
21811;DHT22;11067;48.788;9.208;2022-08-01T00:37:09;23.30;99.90
21811;DHT22;11067;48.788;9.208;2022-08-01T00:39:34;23.30;99.90
21811;DHT22;11067;48.788;9.208;2022-08-01T00:42:06;23.30;99.90
21811;DHT22;11067;48.788;9.208;2022-08-01T00:44:32;23.20;99.90
21811;DHT22;11067;48.788;9.208;2022-08-01T00:46:58;23.20;99.90
21811;DHT22;11067;48.788;9.208;2022-08-01T00:49:23;23.10;99.90
21811;DHT22;11067;48.788;9.208;2022-08-01T00:51:49;23.00;99.90
21811;DHT22;11067;48.788;9.208;2022-08-01T00:54:15;22.90;99.90
21811;DHT22;11067;48.788;9.208;2022-08-01T00:56:41;22.90;99.90
21811;DHT22;11067;48.788;9.208;2022-08-01T00:59:07;22.90;99.90
21811;DHT22;11067;48.788;9.208;2022-08-01T01:01:33;22.80;99.90
21811;DHT22;11067;48.788;9.208;2022-08-01T01:03:58;22.80;99.90
21811;DHT22;11067;48.788;9.208;2022-08-01T01:06:35;22.70;99.90
21811;DHT22;11067;48.788;9.208;2022-08-01T01:12:02;22.70;99.90
21811;DHT22;11067;48.788;9.208;2022-08-01T01:14:37;22.60;99.90
21811;DHT22;11067;48.788;9.208;2022-08-01T01:17:06;22.60;99.90
21811;DHT22;11067;48.788;9.208;2022-08-01T01:19:37;22.50;99.90
21811;DHT22;11067;48.788;9.208;2022-08-01T01:22:17;22.50;99.90
21811;DHT22;11067;48.788;9.208;2022-08-01T01:25:02;22.50;99.90
21811;DHT22;11067;48.788;9.208;2022-08-01T01:27:48;22.50;99.90
21811;DHT22;11067;48.788;9.208;2022-08-01T01:30:15;22.40;99.90
21811;DHT22;11067;48.788;9.208;2022-08-01T01:32:44;22.40;99.90
21811;DHT22;11067;48.788;9.208;2022-08-01T01:35:27;22.30;99.90
21811;DHT22;11067;48.788;9.208;2022-08-01T01:38:00;22.20;99.90
21811;DHT22;11067;48.788;9.208;2022-08-01T01:40:26;22.30;99.90
21811;DHT22;11067;48.788;9.208;2022-08-01T01:42:55;22.20;99.90
21811;DHT22;11067;48.788;9.208;2022-08-01T01:45:21;22.10;99.90
21811;DHT22;11067;48.788;9.208;2022-08-01T01:47:49;22.10;99.90
21811;DHT22;11067;48.788;9.208;2022-08-01T01:50:15;22.00;99.90
21811;DHT22;11067;48.788;9.208;2022-08-01T01:52:42;22.00;99.90
21811;DHT22;11067;48.788;9.208;2022-08-01T01:55:10;22.00;99.90
21811;DHT22;11067;48.788;9.208;2022-08-01T01:57:41;21.90;99.90
21811;DHT22;11067;48.788;9.208;2022-08-01T02:00:11;21.90;99.90
21811;DHT22;11067;48.788;9.208;2022-08-01T02:02:37;21.80;99.90
21811;DHT22;11067;48.788;9.208;2022-08-01T02:05:05;21.80;99.90
21811;DHT22;11067;48.788;9.208;2022-08-01T02:07:32;21.70;99.90
21811;DHT22;11067;48.788;9.208;2022-08-01T02:09:58;21.70;99.90
21811;DHT22;11067;48.788;9.208;2022-08-01T02:12:25;21.70;99.90
21811;DHT22;11067;48.788;9.208;2022-08-01T02:14:53;21.60;99.90
21811;DHT22;11067;48.788;9.208;2022-08-01T02:17:20;21.60;99.90
21811;DHT22;11067;48.788;9.208;2022-08-01T02:19:47;21.50;99.90
21811;DHT22;11067;48.788;9.208;2022-08-01T02:22:34;21.60;99.90
21811;DHT22;11067;48.788;9.208;2022-08-01T02:25:08;21.50;99.90
21811;DHT22;11067;48.788;9.208;2022-08-01T02:27:44;21.40;99.90
21811;DHT22;11067;48.788;9.208;2022-08-01T02:30:12;21.40;99.90
21811;DHT22;11067;48.788;9.208;2022-08-01T02:32:47;21.30;99.90
21811;DHT22;11067;48.788;9.208;2022-08-01T02:35:21;21.30;99.90
21811;DHT22;11067;48.788;9.208;2022-08-01T02:37:48;21.30;99.90
21811;DHT22;11067;48.788;9.208;2022-08-01T02:40:16;21.30;99.90
21811;DHT22;11067;48.788;9.208;2022-08-01T02:42:45;21.20;99.90
21811;DHT22;11067;48.788;9.208;2022-08-01T02:45:13;21.20;99.90
21811;DHT22;11067;48.788;9.208;2022-08-01T02:47:40;21.10;99.90
21811;DHT22;11067;48.788;9.208;2022-08-01T02:50:08;21.10;99.90
21811;DHT22;11067;48.788;9.208;2022-08-01T02:52:37;21.10;99.90
21811;DHT22;11067;48.788;9.208;2022-08-01T02:55:04;21.10;99.90
21811;DHT22;11067;48.788;9.208;2022-08-01T02:57:31;21.00;99.90
21811;DHT22;11067;48.788;9.208;2022-08-01T02:59:58;21.10;99.90
21811;DHT22;11067;48.788;9.208;2022-08-01T03:02:25;21.10;99.90
21811;DHT22;11067;48.788;9.208;2022-08-01T03:04:52;21.00;99.90
21811;DHT22;11067;48.788;9.208;2022-08-01T03:07:19;21.00;99.90
21811;DHT22;11067;48.788;9.208;2022-08-01T03:09:45;21.00;99.90
21811;DHT22;11067;48.788;9.208;2022-08-01T03:12:15;21.00;99.90
21811;DHT22;11067;48.788;9.208;2022-08-01T03:14:42;20.90;99.90
21811;DHT22;11067;48.788;9.208;2022-08-01T03:17:09;20.90;99.90
21811;DHT22;11067;48.788;9.208;2022-08-01T03:19:38;20.80;99.90
21811;DHT22;11067;48.788;9.208;2022-08-01T03:22:07;20.80;99.90
21811;DHT22;11067;48.788;9.208;2022-08-01T03:24:33;20.80;99.90
21811;DHT22;11067;48.788;9.208;2022-08-01T03:27:00;20.80;99.90
21811;DHT22;11067;48.788;9.208;2022-08-01T03:29:28;20.80;99.90
21811;DHT22;11067;48.788;9.208;2022-08-01T03:31:56;20.70;99.90
21811;DHT22;11067;48.788;9.208;2022-08-01T03:34:22;20.80;99.90
21811;DHT22;11067;48.788;9.208;2022-08-01T03:36:49;20.80;99.90
21811;DHT22;11067;48.788;9.208;2022-08-01T03:39:17;20.80;99.90
21811;DHT22;11067;48.788;9.208;2022-08-01T03:41:51;20.80;99.90
21811;DHT22;11067;48.788;9.208;2022-08-01T03:44:21;20.70;99.90
21811;DHT22;11067;48.788;9.208;2022-08-01T03:46:54;20.70;99.90
21811;DHT22;11067;48.788;9.208;2022-08-01T03:49:23;20.70;99.90
21811;DHT22;11067;48.788;9.208;2022-08-01T03:51:52;20.70;99.90
21811;DHT22;11067;48.788;9.208;2022-08-01T03:54:30;20.70;99.90
21811;DHT22;11067;48.788;9.208;2022-08-01T03:56:57;20.60;99.90
21811;DHT22;11067;48.788;9.208;2022-08-01T03:59:23;20.60;99.90
21811;DHT22;11067;48.788;9.208;2022-08-01T04:01:50;20.60;99.90
21811;DHT22;11067;48.788;9.208;2022-08-01T04:04:16;20.60;99.90
21811;DHT22;11067;48.788;9.208;2022-08-01T04:06:42;20.60;99.90
21811;DHT22;11067;48.788;9.208;2022-08-01T04:09:10;20.60;99.90
21811;DHT22;11067;48.788;9.208;2022-08-01T04:11:36;20.60;99.90
21811;DHT22;11067;48.788;9.208;2022-08-01T04:14:01;20.60;99.90
21811;DHT22;11067;48.788;9.208;2022-08-01T04:16:27;20.60;99.90
21811;DHT22;11067;48.788;9.208;2022-08-01T04:18:53;20.70;99.90
21811;DHT22;11067;48.788;9.208;2022-08-01T04:21:22;20.70;99.90
21811;DHT22;11067;48.788;9.208;2022-08-01T04:23:49;20.70;99.90
21811;DHT22;11067;48.788;9.208;2022-08-01T04:26:17;20.80;99.90
21811;DHT22;11067;48.788;9.208;2022-08-01T04:28:44;20.80;99.90
21811;DHT22;11067;48.788;9.208;2022-08-01T04:31:11;20.90;99.90
21811;DHT22;11067;48.788;9.208;2022-08-01T04:33:42;20.90;99.90
21811;DHT22;11067;48.788;9.208;2022-08-01T04:36:10;21.00;99.90
21811;DHT22;11067;48.788;9.208;2022-08-01T04:38:37;21.00;99.90
21811;DHT22;11067;48.788;9.208;2022-08-01T04:41:03;21.00;99.90
21811;DHT22;11067;48.788;9.208;2022-08-01T04:43:32;21.10;99.90
21811;DHT22;11067;48.788;9.208;2022-08-01T04:45:58;21.10;99.90
21811;DHT22;11067;48.788;9.208;2022-08-01T04:48:24;21.10;99.90
21811;DHT22;11067;48.788;9.208;2022-08-01T04:50:50;21.20;99.90
21811;DHT22;11067;48.788;9.208;2022-08-01T04:53:18;21.40;99.90
21811;DHT22;11067;48.788;9.208;2022-08-01T04:55:44;21.90;99.90
21811;DHT22;11067;48.788;9.208;2022-08-01T04:58:11;22.30;99.90
21811;DHT22;11067;48.788;9.208;2022-08-01T05:00:37;22.60;99.90
21811;DHT22;11067;48.788;9.208;2022-08-01T05:03:03;23.00;99.90
21811;DHT22;11067;48.788;9.208;2022-08-01T05:05:29;23.40;99.90
21811;DHT22;11067;48.788;9.208;2022-08-01T05:07:55;24.10;99.90
21811;DHT22;11067;48.788;9.208;2022-08-01T05:10:21;24.00;99.90
21811;DHT22;11067;48.788;9.208;2022-08-01T05:12:47;23.60;99.90
21811;DHT22;11067;48.788;9.208;2022-08-01T05:15:12;23.80;99.90
21811;DHT22;11067;48.788;9.208;2022-08-01T05:17:38;23.20;99.90
21811;DHT22;11067;48.788;9.208;2022-08-01T05:20:04;22.90;99.90
21811;DHT22;11067;48.788;9.208;2022-08-01T05:22:31;22.80;99.90
21811;DHT22;11067;48.788;9.208;2022-08-01T05:24:57;22.80;99.90
21811;DHT22;11067;48.788;9.208;2022-08-01T05:27:25;23.10;99.90
21811;DHT22;11067;48.788;9.208;2022-08-01T05:29:50;23.90;99.90
21811;DHT22;11067;48.788;9.208;2022-08-01T05:32:16;24.50;99.90
21811;DHT22;11067;48.788;9.208;2022-08-01T05:34:41;24.80;99.90
21811;DHT22;11067;48.788;9.208;2022-08-01T05:37:07;24.70;99.90
21811;DHT22;11067;48.788;9.208;2022-08-01T05:39:32;24.70;99.90
21811;DHT22;11067;48.788;9.208;2022-08-01T05:41:58;25.00;99.90
21811;DHT22;11067;48.788;9.208;2022-08-01T05:44:24;25.00;99.90
21811;DHT22;11067;48.788;9.208;2022-08-01T05:46:50;24.80;99.90
21811;DHT22;11067;48.788;9.208;2022-08-01T05:49:16;24.60;99.90
21811;DHT22;11067;48.788;9.208;2022-08-01T05:51:41;24.60;99.90
21811;DHT22;11067;48.788;9.208;2022-08-01T05:54:07;24.80;99.90
21811;DHT22;11067;48.788;9.208;2022-08-01T05:56:33;25.60;99.90
21811;DHT22;11067;48.788;9.208;2022-08-01T05:58:58;25.10;99.90
21811;DHT22;11067;48.788;9.208;2022-08-01T06:01:24;25.20;99.90
21811;DHT22;11067;48.788;9.208;2022-08-01T06:03:50;25.20;99.90
21811;DHT22;11067;48.788;9.208;2022-08-01T06:06:15;25.80;99.90
21811;DHT22;11067;48.788;9.208;2022-08-01T06:08:41;26.30;99.90
21811;DHT22;11067;48.788;9.208;2022-08-01T06:11:07;25.70;99.90
21811;DHT22;11067;48.788;9.208;2022-08-01T06:13:32;25.20;99.90
21811;DHT22;11067;48.788;9.208;2022-08-01T06:15:58;25.60;99.90
21811;DHT22;11067;48.788;9.208;2022-08-01T06:18:24;25.50;99.90
21811;DHT22;11067;48.788;9.208;2022-08-01T06:20:49;25.50;99.90
21811;DHT22;11067;48.788;9.208;2022-08-01T06:23:15;25.90;99.90
21811;DHT22;11067;48.788;9.208;2022-08-01T06:25:42;25.70;99.90
21811;DHT22;11067;48.788;9.208;2022-08-01T06:28:07;25.50;99.90
21811;DHT22;11067;48.788;9.208;2022-08-01T06:30:33;25.30;99.90
21811;DHT22;11067;48.788;9.208;2022-08-01T06:32:58;25.60;99.90
21811;DHT22;11067;48.788;9.208;2022-08-01T06:35:26;26.20;99.90
21811;DHT22;11067;48.788;9.208;2022-08-01T06:37:51;25.90;99.90
21811;DHT22;11067;48.788;9.208;2022-08-01T06:40:17;25.90;99.90
21811;DHT22;11067;48.788;9.208;2022-08-01T06:42:43;25.40;99.90
21811;DHT22;11067;48.788;9.208;2022-08-01T06:45:11;25.30;99.90
21811;DHT22;11067;48.788;9.208;2022-08-01T06:47:38;25.90;99.90
21811;DHT22;11067;48.788;9.208;2022-08-01T06:50:05;26.40;99.90
21811;DHT22;11067;48.788;9.208;2022-08-01T06:52:31;26.50;99.90
21811;DHT22;11067;48.788;9.208;2022-08-01T06:54:56;25.30;99.90
21811;DHT22;11067;48.788;9.208;2022-08-01T06:57:22;25.30;99.90
21811;DHT22;11067;48.788;9.208;2022-08-01T06:59:50;25.80;99.90
21811;DHT22;11067;48.788;9.208;2022-08-01T07:02:15;25.50;99.90
21811;DHT22;11067;48.788;9.208;2022-08-01T07:04:41;26.40;99.90
21811;DHT22;11067;48.788;9.208;2022-08-01T07:07:07;26.50;99.90
21811;DHT22;11067;48.788;9.208;2022-08-01T07:09:33;26.40;99.90
21811;DHT22;11067;48.788;9.208;2022-08-01T07:11:59;26.50;99.90
21811;DHT22;11067;48.788;9.208;2022-08-01T07:14:24;26.20;99.90
21811;DHT22;11067;48.788;9.208;2022-08-01T07:16:50;25.20;99.90
21811;DHT22;11067;48.788;9.208;2022-08-01T07:19:16;25.60;99.90
21811;DHT22;11067;48.788;9.208;2022-08-01T07:21:42;25.00;99.90
21811;DHT22;11067;48.788;9.208;2022-08-01T07:24:10;25.30;99.90
21811;DHT22;11067;48.788;9.208;2022-08-01T07:26:36;25.20;99.90
21811;DHT22;11067;48.788;9.208;2022-08-01T07:29:02;25.10;99.90
21811;DHT22;11067;48.788;9.208;2022-08-01T07:31:28;25.10;99.90
21811;DHT22;11067;48.788;9.208;2022-08-01T07:33:54;25.00;99.90
21811;DHT22;11067;48.788;9.208;2022-08-01T07:36:19;25.10;99.90
21811;DHT22;11067;48.788;9.208;2022-08-01T07:38:45;25.00;99.90
21811;DHT22;11067;48.788;9.208;2022-08-01T07:41:11;25.30;99.90
21811;DHT22;11067;48.788;9.208;2022-08-01T07:43:37;25.30;99.90
21811;DHT22;11067;48.788;9.208;2022-08-01T07:46:04;25.80;99.90
21811;DHT22;11067;48.788;9.208;2022-08-01T07:48:29;25.90;99.90
21811;DHT22;11067;48.788;9.208;2022-08-01T07:50:55;25.60;99.90
21811;DHT22;11067;48.788;9.208;2022-08-01T07:53:21;25.30;99.90
21811;DHT22;11067;48.788;9.208;2022-08-01T07:55:46;24.90;99.90
21811;DHT22;11067;48.788;9.208;2022-08-01T07:58:13;24.80;99.90
21811;DHT22;11067;48.788;9.208;2022-08-01T08:00:38;24.70;99.90
21811;DHT22;11067;48.788;9.208;2022-08-01T08:03:04;24.90;99.90
21811;DHT22;11067;48.788;9.208;2022-08-01T08:05:30;25.00;99.90
21811;DHT22;11067;48.788;9.208;2022-08-01T08:07:56;24.80;99.90
21811;DHT22;11067;48.788;9.208;2022-08-01T08:10:21;24.80;99.90
21811;DHT22;11067;48.788;9.208;2022-08-01T08:12:47;25.50;99.90
21811;DHT22;11067;48.788;9.208;2022-08-01T08:15:13;26.00;99.90
21811;DHT22;11067;48.788;9.208;2022-08-01T08:17:39;25.60;99.90
21811;DHT22;11067;48.788;9.208;2022-08-01T08:20:06;25.40;99.90
21811;DHT22;11067;48.788;9.208;2022-08-01T08:22:31;25.80;99.90
21811;DHT22;11067;48.788;9.208;2022-08-01T08:24:57;25.90;99.90
21811;DHT22;11067;48.788;9.208;2022-08-01T08:27:22;26.50;99.90
21811;DHT22;11067;48.788;9.208;2022-08-01T08:29:48;26.50;99.90
21811;DHT22;11067;48.788;9.208;2022-08-01T08:32:13;26.20;99.90
21811;DHT22;11067;48.788;9.208;2022-08-01T08:34:39;26.10;99.90
21811;DHT22;11067;48.788;9.208;2022-08-01T08:37:04;25.90;99.90
21811;DHT22;11067;48.788;9.208;2022-08-01T08:39:30;25.80;99.90
21811;DHT22;11067;48.788;9.208;2022-08-01T08:41:59;25.50;99.90
21811;DHT22;11067;48.788;9.208;2022-08-01T08:44:25;25.50;99.90
21811;DHT22;11067;48.788;9.208;2022-08-01T08:46:51;26.00;99.90
21811;DHT22;11067;48.788;9.208;2022-08-01T08:49:26;26.20;99.90
21811;DHT22;11067;48.788;9.208;2022-08-01T08:51:53;25.90;99.90
21811;DHT22;11067;48.788;9.208;2022-08-01T08:54:22;25.60;99.90
21811;DHT22;11067;48.788;9.208;2022-08-01T08:56:50;25.70;99.90
21811;DHT22;11067;48.788;9.208;2022-08-01T08:59:16;26.10;99.90
21811;DHT22;11067;48.788;9.208;2022-08-01T09:01:42;25.90;99.90
21811;DHT22;11067;48.788;9.208;2022-08-01T09:04:08;26.00;99.90
21811;DHT22;11067;48.788;9.208;2022-08-01T09:06:33;25.70;99.90
21811;DHT22;11067;48.788;9.208;2022-08-01T09:09:00;25.90;99.90
21811;DHT22;11067;48.788;9.208;2022-08-01T09:11:26;26.40;99.90
21811;DHT22;11067;48.788;9.208;2022-08-01T09:14:12;26.30;99.90
21811;DHT22;11067;48.788;9.208;2022-08-01T09:16:41;26.30;99.90
21811;DHT22;11067;48.788;9.208;2022-08-01T09:19:20;26.30;99.90
21811;DHT22;11067;48.788;9.208;2022-08-01T09:21:59;27.10;99.90
21811;DHT22;11067;48.788;9.208;2022-08-01T09:24:27;26.50;99.90
21811;DHT22;11067;48.788;9.208;2022-08-01T09:26:53;26.40;99.90
21811;DHT22;11067;48.788;9.208;2022-08-01T09:29:26;26.30;99.90
21811;DHT22;11067;48.788;9.208;2022-08-01T09:31:51;26.70;99.90
21811;DHT22;11067;48.788;9.208;2022-08-01T09:34:27;26.30;99.90
21811;DHT22;11067;48.788;9.208;2022-08-01T09:36:58;26.00;99.90
21811;DHT22;11067;48.788;9.208;2022-08-01T09:39:29;25.90;99.90
21811;DHT22;11067;48.788;9.208;2022-08-01T09:41:57;26.10;99.90
21811;DHT22;11067;48.788;9.208;2022-08-01T09:44:43;26.10;99.90
21811;DHT22;11067;48.788;9.208;2022-08-01T09:47:09;26.30;99.90
21811;DHT22;11067;48.788;9.208;2022-08-01T09:49:38;25.80;99.90
21811;DHT22;11067;48.788;9.208;2022-08-01T09:52:12;25.80;99.90
21811;DHT22;11067;48.788;9.208;2022-08-01T09:54:39;26.10;99.90
21811;DHT22;11067;48.788;9.208;2022-08-01T09:57:13;26.10;99.90
21811;DHT22;11067;48.788;9.208;2022-08-01T09:59:41;25.90;99.90
21811;DHT22;11067;48.788;9.208;2022-08-01T10:02:11;26.20;99.90
21811;DHT22;11067;48.788;9.208;2022-08-01T10:04:48;26.30;99.90
21811;DHT22;11067;48.788;9.208;2022-08-01T10:07:14;26.20;99.90
21811;DHT22;11067;48.788;9.208;2022-08-01T10:09:44;26.60;99.90
21811;DHT22;11067;48.788;9.208;2022-08-01T10:12:12;26.60;99.90
21811;DHT22;11067;48.788;9.208;2022-08-01T10:14:38;26.70;99.90
21811;DHT22;11067;48.788;9.208;2022-08-01T10:17:08;26.60;99.90
21811;DHT22;11067;48.788;9.208;2022-08-01T10:19:35;26.70;99.90
21811;DHT22;11067;48.788;9.208;2022-08-01T10:22:04;26.50;99.90
21811;DHT22;11067;48.788;9.208;2022-08-01T10:24:30;26.00;99.90
21811;DHT22;11067;48.788;9.208;2022-08-01T10:27:03;26.20;99.90
21811;DHT22;11067;48.788;9.208;2022-08-01T10:29:40;26.60;99.90
21811;DHT22;11067;48.788;9.208;2022-08-01T10:32:06;27.10;99.90
21811;DHT22;11067;48.788;9.208;2022-08-01T10:34:33;27.10;99.90
21811;DHT22;11067;48.788;9.208;2022-08-01T10:37:00;27.10;99.90
21811;DHT22;11067;48.788;9.208;2022-08-01T10:39:26;27.40;99.90
21811;DHT22;11067;48.788;9.208;2022-08-01T10:41:55;27.20;99.90
21811;DHT22;11067;48.788;9.208;2022-08-01T10:44:23;27.20;99.90
21811;DHT22;11067;48.788;9.208;2022-08-01T10:46:54;27.40;99.90
21811;DHT22;11067;48.788;9.208;2022-08-01T10:49:22;27.90;99.90
21811;DHT22;11067;48.788;9.208;2022-08-01T10:51:49;27.40;99.90
21811;DHT22;11067;48.788;9.208;2022-08-01T10:54:15;27.30;99.90
21811;DHT22;11067;48.788;9.208;2022-08-01T10:56:51;26.90;99.90
21811;DHT22;11067;48.788;9.208;2022-08-01T10:59:27;26.70;99.90
21811;DHT22;11067;48.788;9.208;2022-08-01T11:02:04;26.90;99.90
21811;DHT22;11067;48.788;9.208;2022-08-01T11:04:44;27.30;99.90
21811;DHT22;11067;48.788;9.208;2022-08-01T11:07:18;27.40;99.90
21811;DHT22;11067;48.788;9.208;2022-08-01T11:09:47;27.20;99.90
21811;DHT22;11067;48.788;9.208;2022-08-01T11:12:15;27.60;99.90
21811;DHT22;11067;48.788;9.208;2022-08-01T11:17:42;27.90;99.90
21811;DHT22;11067;48.788;9.208;2022-08-01T11:20:28;27.50;99.90
21811;DHT22;11067;48.788;9.208;2022-08-01T11:30:44;27.50;99.90
21811;DHT22;11067;48.788;9.208;2022-08-01T11:33:11;27.80;99.90
21811;DHT22;11067;48.788;9.208;2022-08-01T11:35:37;27.90;99.90
21811;DHT22;11067;48.788;9.208;2022-08-01T11:38:24;28.00;99.90
21811;DHT22;11067;48.788;9.208;2022-08-01T11:41:18;28.10;99.90
21811;DHT22;11067;48.788;9.208;2022-08-01T11:46:45;27.80;99.90
21811;DHT22;11067;48.788;9.208;2022-08-01T11:52:08;27.70;99.90
21811;DHT22;11067;48.788;9.208;2022-08-01T11:54:40;27.60;99.90
21811;DHT22;11067;48.788;9.208;2022-08-01T11:57:07;27.60;99.90
21811;DHT22;11067;48.788;9.208;2022-08-01T11:59:39;27.10;99.90
21811;DHT22;11067;48.788;9.208;2022-08-01T12:02:35;27.30;99.90
21811;DHT22;11067;48.788;9.208;2022-08-01T12:05:06;27.70;99.90
21811;DHT22;11067;48.788;9.208;2022-08-01T12:07:34;27.40;99.90
21811;DHT22;11067;48.788;9.208;2022-08-01T12:12:31;27.80;99.90
21811;DHT22;11067;48.788;9.208;2022-08-01T12:14:59;27.90;99.90
21811;DHT22;11067;48.788;9.208;2022-08-01T12:17:29;27.80;99.90
21811;DHT22;11067;48.788;9.208;2022-08-01T12:19:55;27.80;99.90
21811;DHT22;11067;48.788;9.208;2022-08-01T12:22:22;28.40;99.90
21811;DHT22;11067;48.788;9.208;2022-08-01T12:24:48;28.00;99.90
21811;DHT22;11067;48.788;9.208;2022-08-01T12:27:30;27.90;99.90
21811;DHT22;11067;48.788;9.208;2022-08-01T12:29:57;27.80;99.90
21811;DHT22;11067;48.788;9.208;2022-08-01T12:34:54;27.60;99.90
21811;DHT22;11067;48.788;9.208;2022-08-01T12:37:20;27.70;99.90
21811;DHT22;11067;48.788;9.208;2022-08-01T12:39:46;27.50;99.90
21811;DHT22;11067;48.788;9.208;2022-08-01T12:42:13;27.40;99.90
21811;DHT22;11067;48.788;9.208;2022-08-01T12:44:39;27.50;99.90
21811;DHT22;11067;48.788;9.208;2022-08-01T12:47:06;27.40;99.90
21811;DHT22;11067;48.788;9.208;2022-08-01T12:49:33;27.70;99.90
21811;DHT22;11067;48.788;9.208;2022-08-01T12:52:00;28.00;99.90
21811;DHT22;11067;48.788;9.208;2022-08-01T12:54:27;28.00;99.90
21811;DHT22;11067;48.788;9.208;2022-08-01T12:56:52;28.30;99.90
21811;DHT22;11067;48.788;9.208;2022-08-01T12:59:24;28.10;99.90
21811;DHT22;11067;48.788;9.208;2022-08-01T13:01:54;28.30;99.90
21811;DHT22;11067;48.788;9.208;2022-08-01T13:04:22;28.30;99.90
21811;DHT22;11067;48.788;9.208;2022-08-01T13:06:52;28.20;99.90
21811;DHT22;11067;48.788;9.208;2022-08-01T13:09:18;28.40;99.90
21811;DHT22;11067;48.788;9.208;2022-08-01T13:11:43;28.30;99.90
21811;DHT22;11067;48.788;9.208;2022-08-01T13:14:09;28.50;99.90
21811;DHT22;11067;48.788;9.208;2022-08-01T13:16:47;29.20;99.90
21811;DHT22;11067;48.788;9.208;2022-08-01T13:19:13;29.10;99.90
21811;DHT22;11067;48.788;9.208;2022-08-01T13:21:39;28.80;99.90
21811;DHT22;11067;48.788;9.208;2022-08-01T13:24:24;29.00;99.90
21811;DHT22;11067;48.788;9.208;2022-08-01T13:27:00;28.80;99.90
21811;DHT22;11067;48.788;9.208;2022-08-01T13:29:33;28.90;99.90
21811;DHT22;11067;48.788;9.208;2022-08-01T13:32:11;28.50;99.90
21811;DHT22;11067;48.788;9.208;2022-08-01T13:34:37;28.60;99.90
21811;DHT22;11067;48.788;9.208;2022-08-01T13:37:02;28.90;99.90
21811;DHT22;11067;48.788;9.208;2022-08-01T13:39:29;28.50;99.90
21811;DHT22;11067;48.788;9.208;2022-08-01T13:42:11;29.10;99.90
21811;DHT22;11067;48.788;9.208;2022-08-01T13:44:37;28.50;99.90
21811;DHT22;11067;48.788;9.208;2022-08-01T13:47:04;28.40;99.90
21811;DHT22;11067;48.788;9.208;2022-08-01T13:49:30;28.10;99.90
21811;DHT22;11067;48.788;9.208;2022-08-01T13:51:56;28.00;99.90
21811;DHT22;11067;48.788;9.208;2022-08-01T13:54:21;28.40;99.90
21811;DHT22;11067;48.788;9.208;2022-08-01T13:56:49;28.50;99.90
21811;DHT22;11067;48.788;9.208;2022-08-01T13:59:14;29.00;99.90
21811;DHT22;11067;48.788;9.208;2022-08-01T14:01:40;28.90;99.90
21811;DHT22;11067;48.788;9.208;2022-08-01T14:04:05;29.40;99.90
21811;DHT22;11067;48.788;9.208;2022-08-01T14:06:32;29.20;99.90
21811;DHT22;11067;48.788;9.208;2022-08-01T14:08:57;28.80;99.90
21811;DHT22;11067;48.788;9.208;2022-08-01T14:11:23;29.10;99.90
21811;DHT22;11067;48.788;9.208;2022-08-01T14:13:48;29.00;99.90
21811;DHT22;11067;48.788;9.208;2022-08-01T14:16:14;29.20;99.90
21811;DHT22;11067;48.788;9.208;2022-08-01T14:18:39;28.80;99.90
21811;DHT22;11067;48.788;9.208;2022-08-01T14:21:05;28.70;99.90
21811;DHT22;11067;48.788;9.208;2022-08-01T14:23:31;29.00;99.90
21811;DHT22;11067;48.788;9.208;2022-08-01T14:26:00;29.10;99.90
21811;DHT22;11067;48.788;9.208;2022-08-01T14:28:26;28.60;99.90
21811;DHT22;11067;48.788;9.208;2022-08-01T14:30:59;28.90;99.90
21811;DHT22;11067;48.788;9.208;2022-08-01T14:33:30;28.90;99.90
21811;DHT22;11067;48.788;9.208;2022-08-01T14:35:56;28.90;99.90
21811;DHT22;11067;48.788;9.208;2022-08-01T14:38:22;29.20;99.90
21811;DHT22;11067;48.788;9.208;2022-08-01T14:40:47;29.00;99.90
21811;DHT22;11067;48.788;9.208;2022-08-01T14:43:20;28.80;99.90
21811;DHT22;11067;48.788;9.208;2022-08-01T14:45:47;28.90;99.90
21811;DHT22;11067;48.788;9.208;2022-08-01T14:48:16;29.00;99.90
21811;DHT22;11067;48.788;9.208;2022-08-01T14:50:44;29.00;99.90
21811;DHT22;11067;48.788;9.208;2022-08-01T14:53:10;28.80;99.90
21811;DHT22;11067;48.788;9.208;2022-08-01T14:55:36;28.90;99.90
21811;DHT22;11067;48.788;9.208;2022-08-01T14:58:01;29.20;99.90
21811;DHT22;11067;48.788;9.208;2022-08-01T15:00:27;29.30;99.90
21811;DHT22;11067;48.788;9.208;2022-08-01T15:02:52;29.10;99.90
21811;DHT22;11067;48.788;9.208;2022-08-01T15:05:18;28.50;99.90
21811;DHT22;11067;48.788;9.208;2022-08-01T15:07:43;28.50;99.90
21811;DHT22;11067;48.788;9.208;2022-08-01T15:10:09;28.50;99.90
21811;DHT22;11067;48.788;9.208;2022-08-01T15:12:35;28.70;99.90
21811;DHT22;11067;48.788;9.208;2022-08-01T15:15:01;29.00;99.90
21811;DHT22;11067;48.788;9.208;2022-08-01T15:17:28;29.00;99.90
21811;DHT22;11067;48.788;9.208;2022-08-01T15:19:56;29.30;99.90
21811;DHT22;11067;48.788;9.208;2022-08-01T15:22:23;29.20;99.90
21811;DHT22;11067;48.788;9.208;2022-08-01T15:24:50;29.10;99.90
21811;DHT22;11067;48.788;9.208;2022-08-01T15:27:16;28.90;99.90
21811;DHT22;11067;48.788;9.208;2022-08-01T15:29:42;28.70;99.90
21811;DHT22;11067;48.788;9.208;2022-08-01T15:32:08;28.80;99.90
21811;DHT22;11067;48.788;9.208;2022-08-01T15:34:35;28.70;99.90
21811;DHT22;11067;48.788;9.208;2022-08-01T15:37:01;28.80;99.90
21811;DHT22;11067;48.788;9.208;2022-08-01T15:39:28;28.80;99.90
21811;DHT22;11067;48.788;9.208;2022-08-01T15:41:53;28.90;99.90
21811;DHT22;11067;48.788;9.208;2022-08-01T15:44:19;29.00;99.90
21811;DHT22;11067;48.788;9.208;2022-08-01T15:46:49;29.20;99.90
21811;DHT22;11067;48.788;9.208;2022-08-01T15:49:16;28.80;99.90
21811;DHT22;11067;48.788;9.208;2022-08-01T15:51:45;28.70;99.90
21811;DHT22;11067;48.788;9.208;2022-08-01T15:54:11;28.70;99.90
21811;DHT22;11067;48.788;9.208;2022-08-01T15:56:37;28.90;99.90
21811;DHT22;11067;48.788;9.208;2022-08-01T15:59:04;28.80;99.90